Aérodrome :
LOGIN :

S'inscrire | Disclaimer

   EN    FR    IT 

 










Légende :    VFR   VFR Marginal   IFR   IFR Intensif   IFR Très Intensif
Visi : 
Plafond : 
>= 8 km
>= 3000ft
5 à 8 km
1000 à 3000 ft
1500m à 5 km
500 à 1000 ft
800 à 1500m
200 à 500 ft
< 800m
< 200 ft
Symboles :   Orages  Brouillard  Fortes neiges  Fortes précipitations  Vent > 20 kt
SIGMETs :   Divers  Orages  Givrage  Turbulence  Onde Orograph.  Cendres Volcan.







- Altitude de l'aérodrome : 162 ft
- Code IATA : BOD
- Voir les cartes d'approche


LFBD - Bordeaux / Merignac

DERNIER METAR :
  • 202200Z AUTO 29004KT CAVOK 16/11 Q1017 NOSIG

METARs EXPIRÉS :
  • 202130Z AUTO 28004KT CAVOK 17/11 Q1017 NOSIG
  • 202100Z AUTO 28004KT CAVOK 17/11 Q1017 NOSIG
  • 202030Z AUTO 30005KT CAVOK 18/11 Q1017 NOSIG
  • 202000Z AUTO 31005KT CAVOK 19/11 Q1017 NOSIG
  • 201930Z AUTO 30005KT 280V350 CAVOK 20/11 Q1017 NOSIG

TAF TAF LFBD
Valide du 20 à 18h jusqu'au 22 à 00h UTC


201700Z 2018/2124 29006KT 9999 BKN030
TEMPO 2018/2103 CAVOK
BECMG 2021/2023 VRB02KT
BECMG 2115/2118 25008KT CAVOK TX25/2115Z TN17/2104Z
ATIS : +33 5 57 92 81 04
Pas de NOTAMs connus pour ce terrain.



MET'MAP, la Météo Aéronautique d'un coup d'oeil ! - Copyright ORBIFLY Décembre 2007 - Disclaimer

ORBIFLY MET'MAP TEAM :

Programmation & Développement : Alexandra Zaïnal
Conception & Développement : Baudouin d'Aumeries
Co-Programmation & Développement : Marc-Olivier Méhu
Soutien technique & logistique : Manuel Goepfert

Contact : metmap@orbifly.com




SOURCES & CREDITS :

   NOAA